Time;durP1;ratioP1;P1;durP2;ratioP2;P2;SDS_P1;SDS_P2;PMS_P1;PMS_P2;Temp;Humidity;BMP_temperature;BMP_pressure;BME280_temperature;BME280_humidity;BME280_pressure;Samples;Min_cycle;Max_cycle;Signal;HPM_P1;HPM_P2
2023/05/08 00:00:08;;;;;;;12.43;10.05;;;11.70;99.90;;;;;;5094000;28;20507;-92
2023/05/08 00:02:33;;;;;;;13.77;9.00;;;11.70;99.90;;;;;;5093644;28;20176;-94
2023/05/08 00:04:59;;;;;;;12.48;9.20;;;11.60;99.90;;;;;;5080082;28;20075;-93
2023/05/08 00:07:24;;;;;;;12.20;8.40;;;11.70;99.90;;;;;;5080782;28;20503;-94
2023/05/08 00:09:50;;;;;;;11.00;9.43;;;11.60;99.90;;;;;;5097891;28;20039;-95
2023/05/08 00:12:16;;;;;;;11.57;8.88;;;11.60;99.90;;;;;;5116053;27;20075;-94
2023/05/08 00:14:41;;;;;;;14.18;10.25;;;11.60;99.90;;;;;;5098785;28;20047;-95
2023/05/08 00:17:07;;;;;;;12.93;9.65;;;11.50;99.90;;;;;;5081575;28;20047;-96
2023/05/08 00:19:33;;;;;;;11.30;9.52;;;11.50;99.90;;;;;;5099198;28;20074;-94
2023/05/08 00:21:59;;;;;;;13.23;9.60;;;10.80;99.90;;;;;;5097530;28;20047;-94
2023/05/08 00:24:25;;;;;;;11.85;9.13;;;11.80;99.90;;;;;;5080668;28;20043;-94
2023/05/08 00:26:50;;;;;;;12.82;9.73;;;11.40;99.90;;;;;;5097624;28;20048;-94
2023/05/08 00:29:16;;;;;;;11.88;9.25;;;11.40;99.90;;;;;;5080357;28;20492;-94
2023/05/08 00:31:42;;;;;;;12.48;9.02;;;11.30;99.90;;;;;;5080935;28;20039;-94
2023/05/08 00:34:07;;;;;;;12.77;9.38;;;11.30;99.90;;;;;;5095886;28;20267;-93
2023/05/08 00:36:33;;;;;;;13.73;9.90;;;11.30;99.90;;;;;;5078892;28;20044;-93
2023/05/08 00:38:59;;;;;;;11.48;9.27;;;11.30;99.90;;;;;;5096327;28;20044;-94
2023/05/08 00:41:25;;;;;;;11.55;9.55;;;11.30;99.90;;;;;;5096399;28;20036;-94
2023/05/08 00:43:50;;;;;;;15.80;9.55;;;10.50;99.90;;;;;;5094099;28;20527;-93
2023/05/08 00:46:16;;;;;;;13.00;9.40;;;11.20;99.90;;;;;;5092768;28;20047;-94
2023/05/08 00:48:43;;;;;;;15.77;10.77;;;11.20;99.90;;;;;;5075091;28;20039;-94
2023/05/08 00:51:10;;;;;;;14.75;11.13;;;11.10;99.90;;;;;;5076239;28;20043;-93
2023/05/08 00:53:39;;;;;;;13.38;10.10;;;11.00;99.90;;;;;;5092520;28;20104;-94
2023/05/08 00:56:07;;;;;;;15.05;9.93;;;11.00;99.90;;;;;;5094518;28;20595;-94
2023/05/08 00:58:33;;;;;;;16.63;11.27;;;11.00;99.90;;;;;;5079379;28;20050;-94
2023/05/08 01:00:59;;;;;;;18.23;10.85;;;11.00;99.90;;;;;;5078613;28;20040;-95
2023/05/08 01:03:26;;;;;;;16.90;10.05;;;11.90;99.90;;;;;;5093686;28;20069;-94
2023/05/08 01:05:52;;;;;;;13.85;11.20;;;9.60;99.90;;;;;;5077190;28;20047;-94
2023/05/08 01:08:17;;;;;;;12.40;10.45;;;10.90;99.90;;;;;;5094167;28;20046;-95
2023/05/08 01:11:08;;;;;;;11.20;9.65;;;10.90;99.90;;;;;;5093909;28;20048;-95
2023/05/08 01:13:50;;;;;;;12.90;10.93;;;10.90;99.90;;;;;;5095357;28;20059;-95
2023/05/08 01:16:42;;;;;;;12.82;10.77;;;10.90;99.90;;;;;;5111598;28;20089;-95
2023/05/08 01:19:33;;;;;;;14.27;10.60;;;10.90;99.90;;;;;;5130147;27;20523;-95
2023/05/08 01:22:25;;;;;;;13.95;11.10;;;10.80;99.90;;;;;;5096850;28;20101;-95
2023/05/08 01:24:56;;;;;;;17.80;11.10;;;10.80;99.90;;;;;;5051158;28;20050;-96
2023/05/08 01:27:50;;;;;;;13.55;9.65;;;10.80;99.90;;;;;;5096519;28;20138;-96
2023/05/08 01:30:51;;;;;;;15.05;10.60;;;10.80;99.90;;;;;;5113698;28;20051;-95
2023/05/08 01:33:24;;;;;;;13.40;10.35;;;10.80;99.90;;;;;;5114408;28;20054;-96
2023/05/08 01:35:59;;;;;;;13.07;10.02;;;10.70;99.90;;;;;;5100901;28;20092;-96
2023/05/08 01:38:39;;;;;;;12.38;9.95;;;10.70;99.90;;;;;;5100708;28;20461;-95
2023/05/08 01:41:09;;;;;;;14.48;11.27;;;10.70;99.90;;;;;;5101448;28;20537;-95
2023/05/08 01:43:41;;;;;;;14.55;11.07;;;10.70;99.90;;;;;;5101497;28;20048;-94
2023/05/08 01:46:17;;;;;;;12.38;10.57;;;10.70;99.90;;;;;;5102281;28;20039;-95
2023/05/08 01:48:49;;;;;;;13.80;10.77;;;10.60;99.90;;;;;;5119496;28;20048;-96
2023/05/08 01:51:21;;;;;;;13.63;10.80;;;10.70;99.90;;;;;;5102091;28;20055;-95
2023/05/08 01:53:53;;;;;;;13.18;10.50;;;10.60;99.90;;;;;;5120701;28;20043;-94
2023/05/08 01:56:22;;;;;;;13.23;10.45;;;10.60;99.90;;;;;;5119345;28;20031;-96
2023/05/08 01:58:53;;;;;;;12.15;10.30;;;10.60;99.90;;;;;;5102421;28;20039;-95
2023/05/08 02:01:22;;;;;;;13.88;11.40;;;10.60;99.90;;;;;;5101876;28;20445;-94
2023/05/08 02:03:48;;;;;;;13.75;11.27;;;10.60;99.90;;;;;;5101072;28;20535;-96
2023/05/08 02:06:18;;;;;;;15.95;11.63;;;10.50;99.90;;;;;;5134779;27;20043;-95
2023/05/08 02:08:46;;;;;;;13.05;10.93;;;10.50;99.90;;;;;;5100227;28;20117;-94
2023/05/08 02:11:13;;;;;;;14.77;11.77;;;10.50;99.90;;;;;;5097929;28;20134;-95
2023/05/08 02:13:40;;;;;;;14.80;11.02;;;10.50;99.90;;;;;;5079994;28;20043;-95
2023/05/08 02:16:10;;;;;;;14.15;11.00;;;10.50;99.90;;;;;;5130875;27;20139;-94
2023/05/08 02:18:39;;;;;;;15.45;11.23;;;10.60;99.90;;;;;;5097062;28;20058;-96
2023/05/08 02:21:08;;;;;;;14.65;11.32;;;10.50;99.90;;;;;;5096602;28;20063;-96
2023/05/08 02:23:34;;;;;;;13.90;11.48;;;10.80;99.90;;;;;;5096133;28;20525;-95
2023/05/08 02:26:04;;;;;;;12.57;10.50;;;10.40;99.90;;;;;;5096157;28;20048;-95
2023/05/08 02:28:32;;;;;;;13.02;10.55;;;10.40;99.90;;;;;;5079003;28;20107;-96
2023/05/08 02:30:59;;;;;;;14.27;11.32;;;10.40;99.90;;;;;;5079938;28;20070;-95
2023/05/08 02:33:28;;;;;;;14.60;11.27;;;10.40;99.90;;;;;;5095635;28;20103;-95
2023/05/08 02:35:55;;;;;;;13.77;11.10;;;10.30;99.90;;;;;;5113377;28;20050;-94
2023/05/08 02:38:24;;;;;;;12.98;10.68;;;10.30;99.90;;;;;;5078319;28;20040;-95
2023/05/08 02:40:54;;;;;;;16.42;11.40;;;10.30;99.90;;;;;;5108278;28;20083;-94
2023/05/08 02:43:20;;;;;;;14.35;11.05;;;10.30;99.90;;;;;;5124429;27;20039;-93
2023/05/08 02:46:02;;;;;;;13.55;11.30;;;10.30;99.90;;;;;;5073079;28;20553;-95
2023/05/08 02:48:37;;;;;;;14.85;11.07;;;10.30;99.90;;;;;;5091146;28;20043;-94
2023/05/08 02:51:17;;;;;;;13.40;10.48;;;10.20;99.90;;;;;;5091330;28;20043;-93
2023/05/08 02:53:55;;;;;;;13.20;11.13;;;10.20;99.90;;;;;;5091650;28;20042;-95
2023/05/08 02:56:38;;;;;;;19.83;11.25;;;10.20;99.90;;;;;;5091733;28;20050;-96
2023/05/08 02:59:43;;;;;;;19.05;12.43;;;10.10;99.90;;;;;;5090929;28;20104;-96
2023/05/08 03:02:14;;;;;;;13.43;11.57;;;10.20;99.90;;;;;;5091998;28;20078;-94
2023/05/08 03:04:48;;;;;;;15.00;12.20;;;10.60;99.90;;;;;;5092476;28;20086;-94
2023/05/08 03:07:15;;;;;;;15.57;12.05;;;10.00;99.90;;;;;;5094683;28;20051;-94
2023/05/08 03:09:46;;;;;;;15.00;11.80;;;10.70;99.90;;;;;;5112957;28;20131;-95
2023/05/08 03:12:15;;;;;;;12.75;10.88;;;10.00;99.90;;;;;;5095873;28;20043;-94
2023/05/08 03:14:58;;;;;;;16.08;11.68;;;10.00;99.90;;;;;;5096356;28;20051;-95
2023/05/08 03:17:27;;;;;;;18.90;11.98;;;10.00;99.90;;;;;;5095718;28;20134;-93
2023/05/08 03:19:57;;;;;;;18.13;12.15;;;10.00;99.90;;;;;;5094873;28;20068;-95
2023/05/08 03:22:24;;;;;;;16.20;11.90;;;10.00;99.90;;;;;;5077818;28;20039;-94
2023/05/08 03:24:52;;;;;;;13.60;11.57;;;9.90;99.90;;;;;;5093877;28;20043;-93
2023/05/08 03:27:19;;;;;;;16.02;11.68;;;9.90;99.90;;;;;;5094016;28;20052;-93
2023/05/08 03:29:45;;;;;;;16.52;12.65;;;10.00;99.90;;;;;;5077615;28;20112;-95
2023/05/08 03:32:12;;;;;;;16.70;12.13;;;10.00;99.90;;;;;;5077103;28;20028;-94
2023/05/08 03:34:39;;;;;;;15.38;11.73;;;9.90;99.90;;;;;;5077745;28;20040;-94
2023/05/08 03:37:05;;;;;;;17.65;12.27;;;10.60;99.90;;;;;;5076835;28;20040;-96
2023/05/08 03:39:31;;;;;;;14.18;11.82;;;9.90;99.90;;;;;;5076688;28;20044;-92
2023/05/08 03:41:57;;;;;;;16.58;12.55;;;9.90;99.90;;;;;;5075678;28;20047;-94
2023/05/08 03:44:24;;;;;;;17.70;11.65;;;9.90;99.90;;;;;;5075783;28;20047;-94
2023/05/08 03:46:54;;;;;;;15.07;12.02;;;9.80;99.90;;;;;;5092641;28;20039;-94
2023/05/08 03:49:24;;;;;;;23.50;13.80;;;10.60;99.90;;;;;;5093253;28;20506;-94
2023/05/08 03:51:50;;;;;;;14.82;12.45;;;11.20;99.90;;;;;;5126603;27;20039;-95
2023/05/08 03:54:15;;;;;;;15.88;11.90;;;9.80;99.90;;;;;;5075368;28;20047;-93
2023/05/08 03:56:44;;;;;;;14.90;11.95;;;10.00;99.90;;;;;;5092540;28;20046;-95
2023/05/08 03:59:16;;;;;;;19.67;11.98;;;10.60;99.90;;;;;;5092687;28;20103;-94
2023/05/08 04:02:20;;;;;;;15.40;12.23;;;10.60;99.90;;;;;;5093223;28;20507;-96
2023/05/08 04:04:49;;;;;;;13.90;10.98;;;9.70;99.90;;;;;;5105529;28;20071;-95
2023/05/08 04:07:36;;;;;;;14.63;12.23;;;9.70;99.90;;;;;;5109269;28;20071;-95
2023/05/08 04:10:12;;;;;;;14.63;12.25;;;9.70;99.90;;;;;;5094910;28;20051;-94
2023/05/08 04:13:01;;;;;;;14.98;11.40;;;9.70;99.90;;;;;;5093902;28;20073;-94
2023/05/08 04:15:30;;;;;;;15.95;11.75;;;9.70;99.90;;;;;;5091328;28;20043;-95
2023/05/08 04:17:59;;;;;;;13.30;11.40;;;9.70;99.90;;;;;;5093954;28;20455;-95
2023/05/08 04:20:30;;;;;;;16.02;11.85;;;10.20;99.90;;;;;;5127554;27;20040;-92
2023/05/08 04:22:57;;;;;;;13.45;10.88;;;9.90;99.90;;;;;;5094133;28;20108;-95
2023/05/08 04:25:23;;;;;;;12.07;10.50;;;10.50;99.90;;;;;;5092081;28;20040;-89
2023/05/08 04:27:51;;;;;;;12.13;10.48;;;10.50;99.90;;;;;;5091041;28;20057;-91
2023/05/08 04:30:17;;;;;;;14.90;10.77;;;9.80;99.90;;;;;;5110252;28;20036;-90
2023/05/08 04:32:43;;;;;;;13.82;11.00;;;10.50;99.90;;;;;;5092887;28;20035;-87
2023/05/08 04:35:10;;;;;;;15.27;11.02;;;9.80;99.90;;;;;;5076790;28;20036;-90
2023/05/08 04:37:35;;;;;;;14.02;10.30;;;10.50;99.90;;;;;;5128198;27;20145;-92
2023/05/08 04:40:03;;;;;;;18.25;10.23;;;9.80;99.90;;;;;;5096109;28;20233;-93
2023/05/08 04:42:29;;;;;;;13.70;10.95;;;9.90;99.90;;;;;;5076558;28;20043;-96
2023/05/08 04:44:55;;;;;;;14.52;10.50;;;9.90;99.90;;;;;;5111255;27;20157;-92
2023/05/08 04:47:22;;;;;;;11.35;9.43;;;9.90;99.90;;;;;;5109539;28;20590;-92
2023/05/08 04:49:50;;;;;;;12.25;9.98;;;9.90;99.90;;;;;;5076128;28;20062;-91
2023/05/08 04:52:15;;;;;;;12.63;9.68;;;10.00;99.90;;;;;;5108706;28;20059;-88
2023/05/08 04:54:41;;;;;;;10.85;9.00;;;10.00;99.90;;;;;;5074422;28;20036;-89
2023/05/08 04:57:07;;;;;;;15.07;10.18;;;10.00;99.90;;;;;;5090965;28;20039;-93
2023/05/08 04:59:32;;;;;;;11.63;8.48;;;10.10;99.90;;;;;;5090506;28;20053;-93
2023/05/08 05:02:01;;;;;;;10.68;9.57;;;10.10;99.90;;;;;;5074452;28;20051;-91
2023/05/08 05:04:27;;;;;;;11.48;10.00;;;10.10;99.90;;;;;;5075578;28;20111;-92
2023/05/08 05:06:53;;;;;;;11.25;8.77;;;10.20;99.90;;;;;;5074572;28;20043;-92
2023/05/08 05:09:18;;;;;;;9.80;8.13;;;10.30;99.90;;;;;;5073308;28;20054;-88
2023/05/08 05:11:44;;;;;;;15.38;8.70;;;10.30;99.90;;;;;;5089751;28;20076;-91
2023/05/08 05:14:10;;;;;;;9.82;8.82;;;10.10;99.90;;;;;;5091133;28;20040;-93
2023/05/08 05:16:35;;;;;;;10.48;8.80;;;10.60;99.90;;;;;;5074078;28;20073;-89
2023/05/08 05:19:01;;;;;;;9.55;8.55;;;10.40;99.90;;;;;;5073784;28;20130;-93
2023/05/08 05:21:27;;;;;;;10.07;9.00;;;10.90;99.90;;;;;;5072562;28;20042;-89
2023/05/08 05:23:53;;;;;;;8.70;7.50;;;10.60;99.90;;;;;;5088891;28;20412;-89
2023/05/08 05:26:20;;;;;;;12.13;9.00;;;10.60;99.90;;;;;;5072793;28;20044;-89
2023/05/08 05:28:46;;;;;;;11.93;9.10;;;10.60;99.90;;;;;;5073023;28;20044;-92
2023/05/08 05:31:12;;;;;;;10.45;8.55;;;10.70;99.90;;;;;;5073943;28;20045;-91
2023/05/08 05:33:37;;;;;;;10.77;8.45;;;11.00;99.90;;;;;;5072438;28;20111;-91
2023/05/08 05:36:03;;;;;;;14.05;8.60;;;10.80;99.90;;;;;;5089983;28;20040;-90
2023/05/08 05:38:29;;;;;;;13.70;8.70;;;10.80;99.90;;;;;;5107167;28;20070;-89
2023/05/08 05:40:54;;;;;;;13.40;9.38;;;10.90;99.90;;;;;;5072510;28;20044;-90
2023/05/08 05:43:20;;;;;;;11.52;8.88;;;11.50;99.90;;;;;;5089963;28;20052;-89
2023/05/08 05:45:46;;;;;;;10.50;8.65;;;11.00;99.90;;;;;;5071672;28;20097;-92
2023/05/08 05:48:11;;;;;;;9.82;8.60;;;11.30;99.90;;;;;;5073212;28;20224;-92
2023/05/08 05:50:37;;;;;;;12.25;8.27;;;11.10;99.90;;;;;;5072199;28;20039;-92
2023/05/08 05:53:03;;;;;;;18.95;8.40;;;11.10;99.90;;;;;;5090610;28;20484;-92
2023/05/08 05:55:29;;;;;;;10.30;8.60;;;11.20;99.90;;;;;;5089059;28;20479;-89
2023/05/08 05:57:54;;;;;;;9.38;7.90;;;11.20;99.90;;;;;;5071851;28;20058;-88
2023/05/08 06:00:21;;;;;;;9.85;8.70;;;11.30;99.90;;;;;;5089243;28;20039;-89
2023/05/08 06:02:47;;;;;;;10.60;8.45;;;11.40;99.90;;;;;;5088408;28;20052;-88
2023/05/08 06:05:13;;;;;;;10.57;8.98;;;11.50;99.90;;;;;;5089230;28;20050;-89
2023/05/08 06:07:38;;;;;;;11.40;9.23;;;11.50;99.90;;;;;;5087893;28;20176;-89
2023/05/08 06:10:05;;;;;;;12.43;9.68;;;11.60;99.90;;;;;;5089303;28;20130;-87
2023/05/08 06:12:31;;;;;;;11.63;9.00;;;11.60;99.90;;;;;;5071917;28;20126;-88
2023/05/08 06:14:56;;;;;;;10.00;8.93;;;11.70;99.90;;;;;;5105386;28;20115;-88
2023/05/08 06:17:22;;;;;;;12.65;9.05;;;11.70;99.90;;;;;;5088593;28;20039;-92
2023/05/08 06:19:49;;;;;;;12.98;8.13;;;11.70;99.90;;;;;;5089090;28;20040;-90
2023/05/08 06:22:19;;;;;;;10.25;8.68;;;11.80;99.90;;;;;;5071983;28;20073;-89
2023/05/08 06:24:44;;;;;;;11.38;9.05;;;11.90;99.90;;;;;;5070126;28;20039;-90
2023/05/08 06:27:10;;;;;;;10.43;9.25;;;12.00;99.90;;;;;;5088698;28;20539;-89
2023/05/08 06:29:37;;;;;;;11.05;9.63;;;12.20;99.90;;;;;;5071355;28;20048;-87
2023/05/08 06:32:03;;;;;;;9.77;8.15;;;12.40;99.90;;;;;;5104236;28;20046;-88
2023/05/08 06:34:30;;;;;;;9.05;8.15;;;12.50;99.90;;;;;;5071276;28;20047;-89
2023/05/08 06:36:56;;;;;;;9.60;8.20;;;12.70;99.90;;;;;;5071056;28;20043;-88
2023/05/08 06:39:21;;;;;;;12.18;8.77;;;12.90;99.90;;;;;;5071503;28;20055;-88
2023/05/08 06:41:47;;;;;;;13.13;8.65;;;13.00;99.90;;;;;;5104135;28;20035;-90
2023/05/08 06:44:14;;;;;;;9.82;8.50;;;13.20;99.90;;;;;;5088446;28;20565;-89
2023/05/08 06:46:39;;;;;;;11.15;8.85;;;13.40;99.90;;;;;;5087016;28;20130;-89
2023/05/08 06:49:05;;;;;;;9.57;8.45;;;13.70;99.90;;;;;;5070913;28;20200;-88
2023/05/08 06:51:31;;;;;;;11.88;8.85;;;13.90;99.90;;;;;;5088256;28;20134;-89
2023/05/08 06:53:57;;;;;;;9.80;8.77;;;14.10;99.90;;;;;;5086865;28;20528;-88
2023/05/08 06:56:23;;;;;;;11.32;7.78;;;14.30;99.90;;;;;;5070844;28;20520;-87
2023/05/08 06:58:49;;;;;;;16.83;9.30;;;14.40;99.90;;;;;;5069844;28;20114;-87
2023/05/08 07:01:14;;;;;;;9.43;7.75;;;14.30;99.90;;;;;;5087277;28;20078;-88
2023/05/08 07:03:40;;;;;;;10.75;7.53;;;14.30;99.90;;;;;;5086353;28;20039;-88
2023/05/08 07:06:10;;;;;;;9.63;7.78;;;14.30;99.90;;;;;;5070555;28;20085;-89
2023/05/08 07:08:36;;;;;;;10.32;8.73;;;14.30;99.90;;;;;;5087674;28;20074;-88
2023/05/08 07:11:02;;;;;;;9.10;7.75;;;14.40;99.90;;;;;;5103670;28;20516;-87
2023/05/08 07:13:29;;;;;;;8.63;7.72;;;14.30;99.90;;;;;;5088291;28;20040;-88
2023/05/08 07:15:57;;;;;;;10.35;8.98;;;14.30;99.90;;;;;;5087431;28;20044;-88
2023/05/08 07:18:23;;;;;;;14.20;8.85;;;14.30;99.90;;;;;;5070717;28;20139;-88
2023/05/08 07:20:49;;;;;;;9.70;8.50;;;14.30;99.90;;;;;;5087061;28;20047;-88
2023/05/08 07:23:15;;;;;;;9.32;7.75;;;14.30;99.90;;;;;;5070490;28;20048;-88
2023/05/08 07:25:41;;;;;;;10.57;8.32;;;14.30;99.90;;;;;;5087393;28;20044;-89
2023/05/08 07:28:07;;;;;;;8.98;7.63;;;14.30;99.90;;;;;;5070027;28;20040;-89
2023/05/08 07:30:32;;;;;;;10.93;8.32;;;14.30;99.90;;;;;;5088112;28;20062;-89
2023/05/08 07:32:58;;;;;;;9.82;7.80;;;14.30;99.90;;;;;;5086589;28;20093;-88
2023/05/08 07:35:24;;;;;;;9.60;8.60;;;14.30;99.90;;;;;;5087660;28;20039;-89
2023/05/08 07:37:50;;;;;;;10.35;8.70;;;14.30;99.90;;;;;;5104378;28;20324;-89
2023/05/08 07:40:15;;;;;;;12.20;8.80;;;14.40;99.90;;;;;;5086927;28;20496;-89
2023/05/08 07:42:42;;;;;;;10.15;8.07;;;14.50;99.90;;;;;;5086881;28;20147;-88
2023/05/08 07:45:10;;;;;;;10.25;8.75;;;14.60;99.90;;;;;;5086529;28;20643;-89
2023/05/08 07:47:36;;;;;;;10.85;8.55;;;14.60;99.90;;;;;;5104587;28;20126;-90
2023/05/08 07:50:02;;;;;;;10.63;7.78;;;14.70;99.90;;;;;;5103702;28;20043;-88
2023/05/08 07:52:28;;;;;;;9.93;8.32;;;14.80;99.90;;;;;;5074365;28;20101;-89
2023/05/08 07:54:54;;;;;;;12.38;8.40;;;14.80;99.90;;;;;;5107381;28;20087;-89
2023/05/08 07:57:19;;;;;;;9.20;7.63;;;14.90;99.90;;;;;;5074538;28;20491;-90
2023/05/08 07:59:45;;;;;;;10.73;8.65;;;14.90;99.90;;;;;;5107464;28;20492;-90
2023/05/08 08:02:11;;;;;;;10.63;7.72;;;14.80;99.90;;;;;;5090982;28;20046;-89
2023/05/08 08:04:36;;;;;;;13.23;9.23;;;14.80;99.90;;;;;;5108556;28;20043;-88
2023/05/08 08:07:02;;;;;;;9.65;8.13;;;14.70;99.90;;;;;;5089907;28;20050;-89
2023/05/08 08:09:28;;;;;;;9.30;8.15;;;14.70;99.90;;;;;;5108248;28;20048;-89
2023/05/08 08:11:53;;;;;;;10.35;8.13;;;14.60;99.90;;;;;;5072548;28;20488;-89
2023/05/08 08:14:19;;;;;;;10.35;8.57;;;14.60;99.90;;;;;;5091119;28;20112;-92
2023/05/08 08:16:45;;;;;;;9.45;8.50;;;14.50;99.90;;;;;;5106934;28;20488;-88
2023/05/08 08:19:11;;;;;;;9.98;8.38;;;14.50;99.90;;;;;;5090392;28;20064;-89
2023/05/08 08:21:42;;;;;;;10.35;8.95;;;14.50;99.90;;;;;;5090719;28;20545;-88
2023/05/08 08:24:08;;;;;;;13.27;8.35;;;14.50;99.90;;;;;;5072860;28;20046;-88
2023/05/08 08:26:34;;;;;;;11.70;8.57;;;14.40;99.90;;;;;;5108418;27;20047;-89
2023/05/08 08:29:00;;;;;;;17.33;9.77;;;14.40;99.90;;;;;;5072710;28;20440;-89
2023/05/08 08:31:26;;;;;;;9.65;8.70;;;14.50;99.90;;;;;;5091013;28;20080;-89
2023/05/08 08:33:52;;;;;;;10.05;8.75;;;14.60;99.90;;;;;;5089917;28;20051;-88
2023/05/08 08:36:19;;;;;;;15.65;9.02;;;14.70;99.90;;;;;;5073668;28;20138;-89
2023/05/08 08:38:45;;;;;;;12.73;8.98;;;14.70;99.90;;;;;;5107114;28;20046;-89
2023/05/08 08:41:14;;;;;;;12.80;8.98;;;14.80;99.90;;;;;;5106124;28;20036;-88
2023/05/08 08:43:42;;;;;;;10.23;9.13;;;14.90;99.90;;;;;;5091332;28;20090;-89
2023/05/08 08:46:16;;;;;;;9.90;8.63;;;15.00;99.90;;;;;;5073248;28;20075;-89
2023/05/08 08:48:45;;;;;;;14.00;9.38;;;15.10;99.90;;;;;;5107529;28;20132;-89
2023/05/08 08:51:23;;;;;;;10.90;8.90;;;15.20;99.90;;;;;;5106355;28;20124;-89
2023/05/08 08:54:02;;;;;;;11.38;10.18;;;15.30;99.90;;;;;;5107682;28;20097;-89
2023/05/08 08:56:29;;;;;;;14.52;9.98;;;15.40;99.90;;;;;;5108422;28;20040;-89
2023/05/08 08:59:00;;;;;;;11.27;9.82;;;15.50;99.90;;;;;;5089550;28;20497;-90
2023/05/08 09:01:29;;;;;;;14.73;9.82;;;15.60;99.90;;;;;;5107839;28;20043;-89
2023/05/08 09:03:58;;;;;;;12.40;10.27;;;15.70;99.90;;;;;;5107478;28;20414;-88
2023/05/08 09:06:26;;;;;;;10.55;9.20;;;15.80;99.90;;;;;;5126557;27;20055;-87
2023/05/08 09:08:55;;;;;;;11.38;10.18;;;15.90;99.90;;;;;;5108517;28;20043;-88
2023/05/08 09:11:21;;;;;;;16.33;9.75;;;16.00;99.90;;;;;;5124745;27;20043;-89
2023/05/08 09:13:47;;;;;;;13.98;10.05;;;16.10;99.90;;;;;;5109473;28;20096;-90
2023/05/08 09:16:13;;;;;;;10.73;9.63;;;16.20;99.90;;;;;;5090644;28;20074;-89
2023/05/08 09:18:39;;;;;;;19.15;9.57;;;16.30;99.90;;;;;;5092130;28;20097;-90
2023/05/08 09:21:05;;;;;;;10.73;9.70;;;16.40;99.90;;;;;;5090533;28;20504;-90
2023/05/08 09:23:31;;;;;;;10.15;9.07;;;16.50;99.90;;;;;;5091172;28;20046;-89
2023/05/08 09:25:57;;;;;;;12.18;9.40;;;16.60;99.90;;;;;;5090605;28;20052;-90
2023/05/08 09:28:24;;;;;;;12.45;10.10;;;16.70;99.90;;;;;;5090553;28;20048;-90
2023/05/08 09:31:00;;;;;;;10.88;9.77;;;16.80;99.90;;;;;;5091198;28;20040;-88
2023/05/08 09:33:27;;;;;;;9.25;8.32;;;17.10;99.90;;;;;;5076891;28;20050;-93
2023/05/08 09:35:54;;;;;;;11.07;9.70;;;17.30;99.90;;;;;;5097271;28;20419;-94
2023/05/08 09:38:34;;;;;;;10.85;9.45;;;17.30;99.90;;;;;;5081399;28;20040;-94
2023/05/08 09:41:08;;;;;;;11.30;9.32;;;17.50;99.90;;;;;;5132858;27;20104;-95
2023/05/08 09:43:35;;;;;;;11.07;9.60;;;17.80;99.90;;;;;;5097325;28;20043;-95
2023/05/08 09:46:24;;;;;;;15.27;9.20;;;18.00;99.90;;;;;;5112364;28;20051;-94
2023/05/08 09:48:51;;;;;;;13.05;9.88;;;18.20;99.90;;;;;;5080248;28;20436;-94
2023/05/08 09:51:18;;;;;;;21.20;10.10;;;18.30;99.90;;;;;;5092973;28;20028;-96
2023/05/08 09:53:44;;;;;;;14.10;9.45;;;18.40;99.90;;;;;;5092415;28;20124;-94
2023/05/08 09:56:10;;;;;;;10.73;9.68;;;18.50;99.90;;;;;;5076343;28;20485;-94
2023/05/08 09:58:41;;;;;;;10.18;9.18;;;18.60;99.90;;;;;;5075537;28;20051;-90
2023/05/08 10:01:07;;;;;;;13.75;10.40;;;18.70;99.90;;;;;;5072431;28;20051;-90
2023/05/08 10:03:49;;;;;;;12.65;10.20;;;18.80;99.90;;;;;;5122075;27;20044;-89
2023/05/08 10:06:15;;;;;;;10.93;9.68;;;18.90;99.90;;;;;;5106466;28;20079;-90
2023/05/08 10:08:41;;;;;;;12.77;9.40;;;19.00;99.90;;;;;;5088805;28;20085;-89
2023/05/08 10:11:17;;;;;;;10.70;9.32;;;19.10;99.90;;;;;;5105109;28;20048;-89
2023/05/08 10:13:45;;;;;;;10.82;9.73;;;19.20;99.90;;;;;;5088748;28;20050;-89
2023/05/08 10:16:15;;;;;;;11.63;9.95;;;19.20;99.90;;;;;;5087805;28;20035;-88
2023/05/08 10:18:49;;;;;;;13.88;10.88;;;19.20;99.90;;;;;;5090325;28;20053;-95
2023/05/08 10:21:16;;;;;;;11.93;10.52;;;19.30;99.90;;;;;;5072759;28;20761;-95
2023/05/08 10:23:43;;;;;;;11.10;9.88;;;19.30;99.90;;;;;;5090003;28;20047;-96
2023/05/08 10:26:15;;;;;;;11.10;9.93;;;19.50;99.90;;;;;;5090076;28;20125;-95
2023/05/08 10:28:56;;;;;;;11.30;10.13;;;19.50;99.90;;;;;;5089363;28;20047;-95
2023/05/08 10:31:25;;;;;;;11.20;9.43;;;19.60;99.90;;;;;;5091059;28;20047;-94
2023/05/08 10:33:54;;;;;;;13.32;10.02;;;19.80;99.90;;;;;;5071701;28;20046;-96
2023/05/08 10:36:22;;;;;;;12.98;11.18;;;19.90;99.90;;;;;;5090323;28;20036;-93
2023/05/08 10:38:49;;;;;;;11.63;9.90;;;20.00;99.90;;;;;;5106445;28;20040;-93
2023/05/08 10:41:15;;;;;;;11.73;10.18;;;20.20;99.90;;;;;;5072977;28;20038;-95
2023/05/08 10:43:42;;;;;;;12.00;10.77;;;20.20;99.90;;;;;;5073727;28;20040;-95
2023/05/08 10:46:38;;;;;;;12.55;11.27;;;20.40;99.90;;;;;;5089210;28;20039;-95
2023/05/08 10:49:41;;;;;;;17.05;11.32;;;20.40;99.90;;;;;;5108083;28;20051;-96
2023/05/08 10:52:17;;;;;;;13.85;11.00;;;20.50;99.90;;;;;;5071774;28;20054;-94
2023/05/08 10:55:03;;;;;;;12.70;10.15;;;20.60;99.90;;;;;;5089009;28;20574;-95
2023/05/08 10:57:30;;;;;;;13.23;11.82;;;20.80;99.90;;;;;;5090687;28;20047;-95
2023/05/08 10:59:56;;;;;;;12.77;11.20;;;20.90;99.90;;;;;;5071852;28;20063;-93
2023/05/08 11:02:30;;;;;;;12.73;11.43;;;21.00;99.90;;;;;;5091237;28;20044;-93
2023/05/08 11:05:17;;;;;;;15.15;11.52;;;21.00;99.90;;;;;;5125281;28;20064;-91
2023/05/08 11:08:16;;;;;;;13.35;11.93;;;21.10;99.90;;;;;;5090128;28;20380;-93
2023/05/08 11:10:47;;;;;;;13.35;11.93;;;21.10;99.90;;;;;;5068658;28;20090;-94
2023/05/08 11:13:14;;;;;;;13.13;11.77;;;21.10;99.90;;;;;;5122942;28;20408;-94
2023/05/08 11:15:40;;;;;;;13.75;12.32;;;21.30;99.90;;;;;;5072918;28;20396;-93
2023/05/08 11:18:12;;;;;;;13.57;11.57;;;21.40;99.90;;;;;;5072096;28;20054;-93
2023/05/08 11:20:39;;;;;;;14.15;12.75;;;21.50;99.90;;;;;;5071235;28;20035;-93
2023/05/08 11:23:35;;;;;;;14.98;12.60;;;21.60;99.90;;;;;;5072661;28;20043;-93
2023/05/08 11:26:03;;;;;;;14.18;12.55;;;21.70;99.90;;;;;;5091482;28;20548;-93
2023/05/08 11:28:53;;;;;;;16.00;13.05;;;21.70;99.90;;;;;;5076888;28;20055;-93
2023/05/08 11:31:19;;;;;;;14.52;13.00;;;21.90;99.90;;;;;;5110377;28;20046;-93
2023/05/08 11:33:45;;;;;;;16.38;14.30;;;22.00;99.90;;;;;;5091974;28;20039;-92
2023/05/08 11:36:24;;;;;;;15.75;12.27;;;22.20;99.90;;;;;;5093628;28;20044;-93
2023/05/08 11:39:08;;;;;;;14.50;12.18;;;22.20;99.90;;;;;;5092716;28;20790;-92
2023/05/08 11:41:34;;;;;;;14.40;12.90;;;22.30;99.90;;;;;;5092923;28;20043;-92
2023/05/08 11:44:08;;;;;;;13.63;12.15;;;22.30;99.90;;;;;;5126556;27;20078;-92
2023/05/08 11:46:48;;;;;;;14.20;12.85;;;22.40;99.90;;;;;;5092271;28;20044;-92
2023/05/08 11:49:15;;;;;;;14.50;13.05;;;22.40;99.90;;;;;;5093900;28;20131;-93
2023/05/08 11:51:45;;;;;;;15.02;13.52;;;22.50;99.90;;;;;;5075905;28;20189;-92
2023/05/08 11:54:17;;;;;;;14.30;12.90;;;22.60;99.90;;;;;;5075578;28;20043;-93
2023/05/08 11:56:45;;;;;;;16.13;14.43;;;22.70;99.90;;;;;;5126693;27;20084;-93
2023/05/08 11:59:12;;;;;;;16.50;14.90;;;22.70;99.90;;;;;;5092037;28;20039;-93
2023/05/08 12:01:37;;;;;;;14.55;13.05;;;22.70;99.90;;;;;;5076351;28;20040;-93
2023/05/08 12:04:08;;;;;;;15.15;13.48;;;22.90;99.90;;;;;;5075542;28;20040;-92
2023/05/08 12:06:38;;;;;;;14.98;13.43;;;22.90;99.90;;;;;;5093309;28;20126;-93
2023/05/08 12:09:16;;;;;;;16.33;14.68;;;23.00;99.90;;;;;;5092342;28;20079;-93
2023/05/08 12:11:44;;;;;;;17.45;14.45;;;23.10;99.90;;;;;;5104071;28;20503;-93
2023/05/08 12:14:12;;;;;;;14.30;12.90;;;23.20;99.90;;;;;;5075380;28;20442;-93
2023/05/08 12:16:38;;;;;;;15.98;13.15;;;23.40;99.90;;;;;;5091984;28;20040;-88
2023/05/08 12:19:12;;;;;;;14.13;12.73;;;23.50;99.90;;;;;;5108514;28;20046;-91
2023/05/08 12:21:38;;;;;;;15.07;13.50;;;23.80;99.90;;;;;;5073612;28;20079;-90
2023/05/08 12:24:10;;;;;;;15.43;13.82;;;23.80;99.90;;;;;;5090988;28;20488;-88
2023/05/08 12:26:37;;;;;;;14.93;13.32;;;23.80;99.90;;;;;;5091325;28;20064;-91
2023/05/08 12:29:07;;;;;;;15.30;13.80;;;23.80;99.90;;;;;;5090373;28;20104;-90
2023/05/08 12:31:36;;;;;;;15.50;14.00;;;23.80;99.90;;;;;;5125655;27;20541;-90
2023/05/08 12:34:06;;;;;;;20.35;14.10;;;23.70;99.90;;;;;;5090906;28;20040;-90
2023/05/08 12:36:36;;;;;;;17.70;15.55;;;23.80;99.90;;;;;;5107900;28;20145;-90
2023/05/08 12:39:14;;;;;;;15.02;13.52;;;24.00;99.90;;;;;;5090444;28;20047;-90
2023/05/08 12:41:46;;;;;;;15.80;14.20;;;24.20;99.90;;;;;;5090772;28;20054;-90
2023/05/08 12:44:17;;;;;;;15.27;13.63;;;24.40;99.90;;;;;;5091473;28;20135;-90